createdAt,value
2024-03-02T00:00:14.846Z,31.23
2024-03-02T00:02:47.322Z,33.28
2024-03-02T00:05:17.732Z,29.55
2024-03-02T00:07:53.639Z,29.05
2024-03-02T00:10:26.830Z,29.15
2024-03-02T00:12:56.906Z,29.92
2024-03-02T00:15:48.012Z,33.03
2024-03-02T00:18:21.349Z,27.00
2024-03-02T00:23:19.712Z,26.42
2024-03-02T00:25:56.069Z,31.55
2024-03-02T00:28:38.175Z,25.98
2024-03-02T00:31:13.652Z,30.70
2024-03-02T00:33:45.891Z,27.25
2024-03-02T00:36:16.597Z,23.17
2024-03-02T00:38:52.790Z,26.55
2024-03-02T00:41:29.353Z,20.75
2024-03-02T00:44:14.117Z,17.08
2024-03-02T00:46:43.953Z,17.08
2024-03-02T00:49:25.945Z,19.83
2024-03-02T00:51:55.504Z,20.27
2024-03-02T00:54:27.274Z,18.85
2024-03-02T00:56:57.152Z,21.10
2024-03-02T00:59:25.916Z,18.42
2024-03-02T01:01:54.031Z,15.10
2024-03-02T01:04:22.262Z,22.67
2024-03-02T01:06:50.591Z,24.52
2024-03-02T01:09:19.602Z,13.55
2024-03-02T01:11:47.918Z,16.27
2024-03-02T01:14:16.410Z,12.68
2024-03-02T01:16:44.496Z,14.02
2024-03-02T01:19:12.630Z,14.07
2024-03-02T01:21:41.128Z,16.67
2024-03-02T01:24:09.320Z,16.12
2024-03-02T01:26:37.325Z,23.10
2024-03-02T01:29:05.803Z,26.12
2024-03-02T01:31:34.091Z,11.73
2024-03-02T01:34:02.080Z,20.33
2024-03-02T01:36:30.596Z,26.42
2024-03-02T01:38:58.746Z,21.45
2024-03-02T01:41:27.142Z,25.92
2024-03-02T01:43:55.507Z,22.83
2024-03-02T01:46:23.530Z,27.42
2024-03-02T01:48:51.418Z,23.98
2024-03-02T01:51:19.883Z,19.83
2024-03-02T01:53:47.878Z,20.92
2024-03-02T01:56:15.992Z,15.15
2024-03-02T01:58:46.042Z,24.27
2024-03-02T02:01:14.271Z,18.08
2024-03-02T02:03:42.828Z,26.42
2024-03-02T02:06:11.396Z,24.63
2024-03-02T02:08:39.594Z,30.48
2024-03-02T02:11:08.664Z,27.62
2024-03-02T02:13:36.888Z,24.02
2024-03-02T02:16:09.085Z,25.27
2024-03-02T02:18:38.199Z,30.70
2024-03-02T02:21:06.301Z,31.12
2024-03-02T02:23:34.411Z,32.42
2024-03-02T02:26:04.225Z,33.78
2024-03-02T02:28:32.312Z,18.40
2024-03-02T02:31:02.131Z,31.92
2024-03-02T02:33:30.838Z,35.50
2024-03-02T02:35:58.816Z,35.13
2024-03-02T02:38:26.963Z,34.88
2024-03-02T02:40:55.194Z,23.80
2024-03-02T02:43:23.306Z,18.05
2024-03-02T02:45:51.468Z,16.85
2024-03-02T02:48:20.131Z,30.50
2024-03-02T02:50:48.052Z,30.75
2024-03-02T02:53:16.059Z,28.58
2024-03-02T02:55:45.069Z,21.80
2024-03-02T02:58:13.188Z,25.05
2024-03-02T03:00:42.201Z,29.75
2024-03-02T03:03:10.634Z,28.70
2024-03-02T03:05:38.782Z,26.92
2024-03-02T03:08:07.001Z,32.33
2024-03-02T03:10:35.636Z,32.67
2024-03-02T03:13:04.042Z,35.58
2024-03-02T03:15:32.989Z,31.25
2024-03-02T03:18:01.467Z,34.50
2024-03-02T03:20:29.594Z,34.03
2024-03-02T03:22:58.389Z,35.58
2024-03-02T03:25:27.121Z,36.35
2024-03-02T03:27:55.208Z,32.03
2024-03-02T03:30:24.750Z,32.88
2024-03-02T03:32:53.115Z,33.53
2024-03-02T03:35:21.197Z,34.80
2024-03-02T03:37:49.287Z,37.78
2024-03-02T03:40:17.977Z,36.33
2024-03-02T03:42:46.172Z,37.35
2024-03-02T03:45:14.395Z,37.53
2024-03-02T03:47:42.826Z,39.03
2024-03-02T03:50:11.399Z,41.50
2024-03-02T03:52:39.559Z,35.70
2024-03-02T03:55:08.277Z,32.08
2024-03-02T03:57:36.628Z,38.80
2024-03-02T04:00:05.867Z,38.58
2024-03-02T04:02:40.539Z,38.80
2024-03-02T04:05:12.884Z,37.75
2024-03-02T04:07:44.685Z,35.13
2024-03-02T04:10:14.150Z,35.75
2024-03-02T04:12:42.158Z,36.45
2024-03-02T04:15:10.409Z,39.47
2024-03-02T04:17:38.934Z,37.17
2024-03-02T04:20:08.248Z,38.17
2024-03-02T04:22:37.282Z,41.30
2024-03-02T04:25:06.350Z,35.95
2024-03-02T04:27:35.141Z,37.17
2024-03-02T04:30:03.623Z,37.45
2024-03-02T04:32:33.007Z,38.03
2024-03-02T04:35:01.100Z,36.22
2024-03-02T04:37:30.969Z,36.28
2024-03-02T04:39:59.303Z,39.97
2024-03-02T04:42:27.433Z,38.83
2024-03-02T04:44:55.347Z,40.67
2024-03-02T04:47:24.146Z,44.55
2024-03-02T04:49:52.165Z,40.45
2024-03-02T04:52:20.315Z,38.22
2024-03-02T04:55:07.012Z,41.67
2024-03-02T04:57:35.286Z,41.53
2024-03-02T05:00:08.523Z,38.22
2024-03-02T05:05:05.164Z,39.97
2024-03-02T05:07:33.377Z,40.45
2024-03-02T05:10:01.523Z,42.88
2024-03-02T05:12:37.601Z,40.33
2024-03-02T05:15:06.114Z,39.60
2024-03-02T05:17:34.860Z,38.55
2024-03-02T05:20:03.203Z,35.22
2024-03-02T05:22:31.730Z,36.95
2024-03-02T05:25:01.339Z,37.80
2024-03-02T05:27:32.575Z,36.47
2024-03-02T05:30:01.695Z,38.15
2024-03-02T05:32:32.306Z,32.97
2024-03-02T05:35:00.712Z,34.78
2024-03-02T05:37:28.731Z,35.58
2024-03-02T05:39:56.747Z,32.75
2024-03-02T05:42:25.129Z,33.08
2024-03-02T05:44:53.132Z,31.87
2024-03-02T05:47:21.202Z,30.77
2024-03-02T05:49:49.981Z,36.08
2024-03-02T05:52:18.016Z,30.90
2024-03-02T05:54:46.048Z,30.33
2024-03-02T05:57:33.176Z,28.27
2024-03-02T06:00:01.274Z,24.45
2024-03-02T06:02:30.085Z,28.83
2024-03-02T06:04:58.507Z,30.85
2024-03-02T06:07:26.494Z,29.30
2024-03-02T06:09:54.862Z,31.42
2024-03-02T06:12:23.386Z,28.98
2024-03-02T06:14:51.338Z,26.33
2024-03-02T06:17:20.466Z,31.50
2024-03-02T06:19:49.289Z,30.52
2024-03-02T06:22:17.387Z,30.90
2024-03-02T06:24:45.584Z,29.48
2024-03-02T06:27:14.082Z,30.65
2024-03-02T06:29:42.271Z,29.95
2024-03-02T06:32:10.275Z,28.73
2024-03-02T06:34:38.614Z,28.30
2024-03-02T06:37:06.728Z,30.77
2024-03-02T06:39:35.749Z,32.20
2024-03-02T06:42:04.409Z,30.12
2024-03-02T06:44:32.674Z,31.05
2024-03-02T06:47:00.713Z,30.55
2024-03-02T06:49:29.402Z,31.92
2024-03-02T06:51:57.979Z,28.38
2024-03-02T06:54:26.023Z,27.20
2024-03-02T06:56:54.288Z,29.33
2024-03-02T06:59:22.257Z,27.48
2024-03-02T07:01:50.266Z,27.23
2024-03-02T07:04:18.719Z,29.20
2024-03-02T07:06:46.656Z,28.23
2024-03-02T07:09:14.454Z,25.58
2024-03-02T07:11:42.707Z,28.00
2024-03-02T07:14:10.857Z,29.65
2024-03-02T07:16:41.422Z,27.10
2024-03-02T07:19:10.615Z,27.13
2024-03-02T07:21:39.331Z,26.05
2024-03-02T07:24:08.060Z,28.02
2024-03-02T07:29:07.224Z,25.27
2024-03-02T07:31:35.252Z,23.98
2024-03-02T07:34:05.014Z,23.55
2024-03-02T07:36:33.142Z,26.23
2024-03-02T07:39:01.185Z,25.33
2024-03-02T07:41:29.636Z,23.05
2024-03-02T07:43:58.526Z,24.48
2024-03-02T07:46:26.727Z,23.17
2024-03-02T07:48:55.602Z,23.77
2024-03-02T07:51:23.866Z,23.33
2024-03-02T07:53:51.990Z,21.00
2024-03-02T07:56:23.789Z,23.35
2024-03-02T07:58:52.007Z,25.83
2024-03-02T08:01:21.342Z,24.95
2024-03-02T08:03:51.734Z,23.90
2024-03-02T08:06:22.171Z,23.08
2024-03-02T08:08:50.646Z,22.95
2024-03-02T08:11:19.200Z,24.08
2024-03-02T08:13:47.139Z,24.55
2024-03-02T08:16:17.417Z,24.35
2024-03-02T08:18:45.913Z,27.92
2024-03-02T08:21:14.998Z,27.73
2024-03-02T08:23:45.107Z,28.87
2024-03-02T08:26:13.735Z,26.12
2024-03-02T08:28:44.927Z,26.42
2024-03-02T09:24:36.326Z,21.73
2024-03-02T09:27:23.955Z,20.05
2024-03-02T09:29:52.962Z,20.35
2024-03-02T09:32:22.122Z,21.35
2024-03-02T09:34:50.486Z,20.98
2024-03-02T09:37:18.573Z,20.83
2024-03-02T09:39:47.033Z,17.62
2024-03-02T09:42:16.700Z,18.42
2024-03-02T09:44:44.976Z,19.55
2024-03-02T09:47:13.990Z,16.60
2024-03-02T09:49:42.179Z,17.80
2024-03-02T09:52:11.571Z,17.67
2024-03-02T09:54:40.103Z,17.45
2024-03-02T09:57:11.117Z,17.77
2024-03-02T09:59:39.937Z,17.20
2024-03-02T10:02:11.124Z,17.95
2024-03-02T10:04:40.881Z,18.27
2024-03-02T10:07:18.654Z,15.85
2024-03-02T10:09:53.546Z,18.65
2024-03-02T10:12:21.581Z,17.02
2024-03-02T10:14:51.953Z,17.90
2024-03-02T10:17:20.120Z,17.85
2024-03-02T10:19:48.982Z,17.45
2024-03-02T10:22:17.494Z,19.85
2024-03-02T10:24:47.370Z,17.40
2024-03-02T10:27:24.124Z,17.50
2024-03-02T10:29:53.156Z,17.70
2024-03-02T10:32:24.268Z,17.00
2024-03-02T10:34:53.464Z,18.58
2024-03-02T10:37:23.455Z,16.30
2024-03-02T10:39:53.871Z,15.52
2024-03-02T10:42:25.404Z,16.75
2024-03-02T10:44:54.099Z,15.80
2024-03-02T10:47:24.466Z,17.40
2024-03-02T10:49:54.522Z,18.67
2024-03-02T10:52:24.655Z,16.62
2024-03-02T10:54:54.102Z,17.77
2024-03-02T10:57:24.971Z,16.08
2024-03-02T11:00:03.463Z,15.85
2024-03-02T11:02:34.031Z,14.82
2024-03-02T11:05:09.225Z,16.92
2024-03-02T11:07:39.221Z,13.40
2024-03-02T11:10:10.492Z,15.52
2024-03-02T11:12:45.710Z,15.43
2024-03-02T11:15:21.055Z,16.45
2024-03-02T11:17:50.952Z,14.77
2024-03-02T11:20:20.503Z,14.65
2024-03-02T11:22:48.523Z,16.62
2024-03-02T11:25:29.944Z,16.73
2024-03-02T11:27:58.799Z,16.75
2024-03-02T11:30:36.524Z,15.93
2024-03-02T11:33:12.269Z,14.75
2024-03-02T11:35:54.181Z,16.52
2024-03-02T11:38:22.995Z,15.73
2024-03-02T11:40:51.169Z,15.05
2024-03-02T11:43:22.850Z,16.27
2024-03-02T11:45:59.916Z,16.35
2024-03-02T11:48:28.390Z,15.38
2024-03-02T11:51:01.112Z,15.35
2024-03-02T11:53:32.352Z,16.25
2024-03-02T11:56:03.736Z,15.90
2024-03-02T11:58:31.976Z,13.73
2024-03-02T12:01:00.314Z,16.08
2024-03-02T12:03:30.671Z,13.95
2024-03-02T12:09:18.543Z,15.73
2024-03-02T12:11:47.296Z,16.43
2024-03-02T12:14:15.286Z,18.35
2024-03-02T12:16:46.646Z,18.10
2024-03-02T12:19:18.865Z,18.20
2024-03-02T12:21:48.415Z,18.17
2024-03-02T12:24:18.035Z,17.58
2024-03-02T12:26:48.057Z,16.87
2024-03-02T12:29:28.518Z,17.80
2024-03-02T12:31:56.483Z,17.80
2024-03-02T12:34:26.150Z,15.27
2024-03-02T12:36:54.772Z,13.77
2024-03-02T12:39:24.665Z,13.23
2024-03-02T12:41:55.620Z,13.07
2024-03-02T12:44:23.558Z,12.02
2024-03-02T12:46:55.021Z,13.10
2024-03-02T12:49:24.473Z,13.77
2024-03-02T12:51:55.284Z,12.30
2024-03-02T12:54:24.324Z,12.75
2024-03-02T12:56:52.721Z,12.45
2024-03-02T12:59:23.580Z,18.65
2024-03-02T13:01:54.759Z,19.95
2024-03-02T13:04:27.933Z,17.70
2024-03-02T13:06:59.361Z,18.10
2024-03-02T13:09:29.386Z,17.58
2024-03-02T13:11:58.414Z,19.10
2024-03-02T13:14:27.592Z,20.98
2024-03-02T13:16:59.654Z,22.58
2024-03-02T13:19:30.331Z,21.48
2024-03-02T13:21:59.930Z,23.80
2024-03-02T13:24:29.816Z,22.67
2024-03-02T13:26:59.623Z,22.48
2024-03-02T13:29:27.497Z,22.05
2024-03-02T13:31:55.447Z,24.98
2024-03-02T13:34:25.741Z,26.08
2024-03-02T13:36:53.838Z,27.08
2024-03-02T13:39:21.641Z,27.00
2024-03-02T13:41:54.354Z,27.42
2024-03-02T13:44:23.209Z,27.92
2024-03-02T13:46:53.978Z,25.30
2024-03-02T13:49:21.858Z,23.85
2024-03-02T13:51:49.855Z,24.48
2024-03-02T13:54:19.046Z,20.73
2024-03-02T13:56:48.349Z,19.95
2024-03-02T13:59:16.165Z,19.67
2024-03-02T14:01:45.091Z,16.67
2024-03-02T14:04:14.256Z,15.98
2024-03-02T14:06:44.859Z,17.48
2024-03-02T14:09:13.095Z,16.12
2024-03-02T14:11:41.118Z,14.60
2024-03-02T14:14:09.062Z,19.05
2024-03-02T14:16:37.496Z,17.60
2024-03-02T14:19:08.703Z,15.43
2024-03-02T14:21:40.535Z,16.62
2024-03-02T14:24:08.813Z,18.33
2024-03-02T14:26:40.413Z,16.62
2024-03-02T14:29:08.312Z,17.98
2024-03-02T14:31:36.347Z,17.10
2024-03-02T14:34:04.961Z,16.58
2024-03-02T14:36:33.038Z,16.45
2024-03-02T14:39:01.078Z,19.70
2024-03-02T14:41:29.528Z,20.30
2024-03-02T14:43:57.403Z,21.23
2024-03-02T14:46:26.625Z,16.40
2024-03-02T14:48:55.499Z,15.70
2024-03-02T14:51:23.494Z,16.75
2024-03-02T14:53:52.630Z,17.25
2024-03-02T14:56:20.875Z,16.12
2024-03-02T14:58:48.933Z,15.73
2024-03-02T15:01:19.712Z,16.12
2024-03-02T15:03:48.057Z,16.48
2024-03-02T15:06:16.013Z,17.30
2024-03-02T15:09:03.618Z,15.23
2024-03-02T15:11:31.984Z,14.85
2024-03-02T15:13:59.936Z,14.75
2024-03-02T15:16:30.135Z,16.95
2024-03-02T15:18:58.909Z,17.80
2024-03-02T15:21:26.854Z,14.82
2024-03-02T15:23:54.980Z,15.93
2024-03-02T15:26:23.267Z,15.77
2024-03-02T15:28:51.371Z,14.20
2024-03-02T15:31:19.529Z,16.02
2024-03-02T15:33:47.807Z,15.18
2024-03-02T15:36:16.934Z,16.42
2024-03-02T15:38:45.259Z,13.38
2024-03-02T15:41:13.523Z,14.73
2024-03-02T15:43:43.773Z,11.65
2024-03-02T15:46:11.916Z,14.95
2024-03-02T15:48:40.300Z,16.58
2024-03-02T15:51:09.414Z,17.20
2024-03-02T15:53:38.070Z,13.93
2024-03-02T15:56:09.461Z,17.23
2024-03-02T15:58:39.780Z,16.02
2024-03-02T16:01:10.904Z,17.92
2024-03-02T16:03:39.314Z,19.83
2024-03-02T16:06:07.358Z,21.33
2024-03-02T16:08:36.183Z,23.42
2024-03-02T16:11:05.216Z,22.48
2024-03-02T16:13:33.717Z,23.92
2024-03-02T16:16:01.876Z,18.67
2024-03-02T16:18:31.722Z,22.83
2024-03-02T16:21:00.211Z,20.77
2024-03-02T16:23:28.860Z,22.85
2024-03-02T16:25:57.211Z,23.48
2024-03-02T16:28:25.148Z,25.90
2024-03-02T16:30:54.766Z,23.67
2024-03-02T16:33:25.548Z,25.67
2024-03-02T16:35:55.126Z,22.95
2024-03-02T16:38:22.999Z,25.37
2024-03-02T16:40:51.372Z,23.52
2024-03-02T16:43:22.320Z,21.58
2024-03-02T16:45:52.147Z,22.67
2024-03-02T16:48:38.247Z,17.90
2024-03-02T16:51:06.761Z,18.08
2024-03-02T16:53:35.945Z,19.42
2024-03-02T16:56:05.010Z,15.40
2024-03-02T16:58:33.385Z,21.98
2024-03-02T17:01:01.376Z,22.80
2024-03-02T17:03:29.417Z,22.83
2024-03-02T17:05:57.777Z,23.27
2024-03-02T17:08:27.024Z,17.10
2024-03-02T17:10:54.953Z,21.55
2024-03-02T17:13:23.340Z,21.80
2024-03-02T17:15:51.313Z,21.62
2024-03-02T17:18:39.005Z,20.73
2024-03-02T17:21:07.678Z,21.35
2024-03-02T17:23:35.550Z,22.35
2024-03-02T17:26:03.660Z,29.83
2024-03-02T17:28:34.176Z,26.90
2024-03-02T17:31:03.018Z,27.67
2024-03-02T17:33:31.670Z,24.52
2024-03-02T17:36:01.453Z,24.42
2024-03-02T17:38:30.635Z,30.40
2024-03-02T17:40:58.886Z,32.00
2024-03-02T17:43:28.333Z,33.13
2024-03-02T17:45:58.139Z,28.45
2024-03-02T17:48:27.305Z,27.60
2024-03-02T17:50:55.204Z,27.85
2024-03-02T17:53:23.225Z,33.83
2024-03-02T17:55:51.910Z,35.45
2024-03-02T17:58:21.020Z,33.00
2024-03-02T18:00:49.068Z,33.25
2024-03-02T18:03:17.440Z,34.38
2024-03-02T18:05:45.296Z,34.15
2024-03-02T18:08:15.836Z,25.58
2024-03-02T18:10:44.153Z,24.73
2024-03-02T18:13:12.210Z,33.17
2024-03-02T18:15:58.646Z,26.62
2024-03-02T18:18:27.302Z,22.92
2024-03-02T18:20:55.259Z,24.92
2024-03-02T18:23:23.297Z,28.25
2024-03-02T18:25:51.960Z,21.15
2024-03-02T18:28:20.298Z,24.52
2024-03-02T18:30:48.766Z,16.10
2024-03-02T18:33:17.418Z,27.85
2024-03-02T18:35:45.499Z,24.15
2024-03-02T18:38:13.850Z,25.20
2024-03-02T18:40:43.005Z,21.73
2024-03-02T18:43:10.956Z,21.98
2024-03-02T18:45:39.449Z,20.90
2024-03-02T18:48:09.390Z,16.98
2024-03-02T18:50:37.374Z,14.68
2024-03-02T18:53:09.708Z,14.68
2024-03-02T18:55:39.842Z,14.63
2024-03-02T18:58:08.347Z,14.10
2024-03-02T19:00:36.385Z,22.75
2024-03-02T19:03:07.016Z,21.05
2024-03-02T19:05:35.563Z,21.77
2024-03-02T19:08:04.171Z,15.38
2024-03-02T19:10:32.515Z,16.55
2024-03-02T19:13:00.582Z,14.55
2024-03-02T19:15:29.162Z,16.83
2024-03-02T19:17:57.445Z,14.52
2024-03-02T19:20:25.401Z,17.42
2024-03-02T19:22:54.395Z,16.70
2024-03-02T19:25:23.543Z,15.23
2024-03-02T19:27:51.551Z,15.95
2024-03-02T19:30:20.085Z,13.30
2024-03-02T19:32:48.432Z,15.15
2024-03-02T19:35:17.566Z,12.63
2024-03-02T19:37:45.508Z,15.10
2024-03-02T19:40:16.410Z,13.62
2024-03-02T19:42:47.404Z,11.23
2024-03-02T19:45:15.796Z,12.32
2024-03-02T19:47:44.958Z,13.88
2024-03-02T19:50:15.550Z,13.68
2024-03-02T19:52:43.834Z,11.98
2024-03-02T19:55:14.216Z,12.75
2024-03-02T19:57:46.146Z,12.57
2024-03-02T20:00:15.420Z,11.12
2024-03-02T20:02:44.020Z,11.23
2024-03-02T20:05:13.421Z,9.35
2024-03-02T20:07:44.424Z,10.80
2024-03-02T20:10:13.303Z,11.75
2024-03-02T20:12:41.234Z,9.80
2024-03-02T20:15:12.367Z,11.95
2024-03-02T20:17:40.996Z,11.60
2024-03-02T20:20:12.053Z,10.95
2024-03-02T20:22:42.983Z,11.93
2024-03-02T20:25:14.783Z,10.10
2024-03-02T20:27:45.082Z,10.25
2024-03-02T20:30:14.100Z,9.13
2024-03-02T20:32:42.197Z,9.60
2024-03-02T20:35:13.847Z,11.43
2024-03-02T20:37:42.278Z,9.93
2024-03-02T20:40:11.538Z,10.85
2024-03-02T20:42:45.552Z,9.35
2024-03-02T20:45:19.850Z,8.40
2024-03-02T20:47:48.521Z,10.70
2024-03-02T20:50:16.941Z,8.88
2024-03-02T20:52:46.706Z,9.18
2024-03-02T20:55:15.194Z,8.75
2024-03-02T21:01:50.797Z,9.25
2024-03-02T21:04:19.033Z,9.35
2024-03-02T21:06:47.052Z,8.73
2024-03-02T21:09:14.872Z,9.05
2024-03-02T21:11:45.886Z,9.45
2024-03-02T21:14:14.125Z,8.38
2024-03-02T21:16:42.035Z,6.85
2024-03-02T21:19:10.636Z,7.82
2024-03-02T21:21:41.143Z,8.50
2024-03-02T21:24:09.136Z,8.43
2024-03-02T21:26:43.053Z,7.78
2024-03-02T21:29:12.469Z,7.78
2024-03-02T21:31:40.967Z,6.30
2024-03-02T21:34:08.775Z,8.13
2024-03-02T21:36:38.169Z,7.22
2024-03-02T21:39:06.494Z,7.00
2024-03-02T21:41:34.144Z,6.80
2024-03-02T21:44:02.160Z,8.07
2024-03-02T21:46:30.497Z,6.85
2024-03-02T21:48:58.236Z,7.05
2024-03-02T21:51:26.132Z,7.95
2024-03-02T21:53:54.950Z,6.70
2024-03-02T21:56:23.593Z,6.43
2024-03-02T21:58:54.716Z,7.18
2024-03-02T22:01:22.853Z,6.65
2024-03-02T22:03:51.033Z,7.03
2024-03-02T22:06:18.842Z,5.53
2024-03-02T22:08:46.559Z,6.18
2024-03-02T22:11:14.955Z,5.78
2024-03-02T22:13:43.133Z,6.40
2024-03-02T22:16:11.857Z,5.75
2024-03-02T22:18:40.151Z,6.15
2024-03-02T22:21:08.725Z,6.05
2024-03-02T22:23:40.006Z,5.70
2024-03-02T22:26:08.242Z,6.47
2024-03-02T22:28:36.806Z,5.68
2024-03-02T22:31:04.841Z,6.65
2024-03-02T22:33:33.493Z,6.00
2024-03-02T22:36:02.230Z,5.28
2024-03-02T22:38:30.770Z,6.68
2024-03-02T22:40:59.368Z,5.45
2024-03-02T22:43:36.145Z,5.00
2024-03-02T22:46:04.313Z,5.55
2024-03-02T22:48:32.474Z,6.20
2024-03-02T22:51:03.350Z,5.45
2024-03-02T22:53:31.381Z,5.55
2024-03-02T22:56:00.184Z,5.53
2024-03-02T22:58:28.301Z,5.28
2024-03-02T23:00:59.329Z,6.28
2024-03-02T23:03:27.170Z,5.60
2024-03-02T23:05:55.733Z,5.28
2024-03-02T23:08:23.782Z,5.22
2024-03-02T23:10:51.566Z,6.68
2024-03-02T23:13:19.649Z,5.00
2024-03-02T23:15:47.914Z,5.62
2024-03-02T23:18:15.607Z,5.22
2024-03-02T23:20:43.495Z,4.30
2024-03-02T23:23:11.794Z,5.43
2024-03-02T23:25:39.516Z,5.53
2024-03-02T23:28:08.169Z,4.30
2024-03-02T23:30:36.786Z,4.25
2024-03-02T23:33:04.997Z,4.03
2024-03-02T23:35:32.730Z,4.07
2024-03-02T23:38:00.982Z,3.65
2024-03-02T23:40:51.937Z,4.65
2024-03-02T23:43:20.040Z,3.40
2024-03-02T23:45:48.401Z,4.97
2024-03-02T23:48:16.393Z,3.45
2024-03-02T23:50:44.656Z,5.03
2024-03-02T23:53:12.407Z,4.93
2024-03-02T23:55:47.515Z,4.07
2024-03-02T23:58:20.944Z,5.25
